createdAt,value
2019-03-12T00:02:18.198Z,148465.13
2019-03-12T00:04:49.269Z,148460.08
2019-03-12T00:07:20.111Z,148457.58
2019-03-12T00:09:53.625Z,148477.77
2019-03-12T00:12:23.117Z,148466.39
2019-03-12T00:14:53.546Z,148462.62
2019-03-12T00:17:24.232Z,148474.00
2019-03-12T00:19:54.832Z,148475.27
2019-03-12T00:22:25.562Z,148489.14
2019-03-12T00:24:56.297Z,148479.05
2019-03-12T00:27:26.869Z,148501.80
2019-03-12T00:29:57.673Z,148486.64
2019-03-12T00:32:28.298Z,148476.50
2019-03-12T00:34:59.023Z,148467.67
2019-03-12T00:37:29.489Z,148481.55
2019-03-12T00:39:59.947Z,148485.37
2019-03-12T00:42:30.507Z,148480.31
2019-03-12T00:45:00.976Z,148487.87
2019-03-12T00:47:31.508Z,148501.80
2019-03-12T00:50:02.041Z,148476.50
2019-03-12T00:52:32.550Z,148479.05
2019-03-12T00:55:03.694Z,148474.00
2019-03-12T00:57:34.219Z,148458.80
2019-03-12T01:00:05.626Z,148460.08
2019-03-12T01:02:36.145Z,148453.75
2019-03-12T01:05:07.078Z,148466.39
2019-03-12T01:07:37.544Z,148446.20
2019-03-12T01:10:10.166Z,148441.16
2019-03-12T01:12:40.617Z,148436.06
2019-03-12T01:15:11.641Z,148458.80
2019-03-12T01:17:42.413Z,148439.88
2019-03-12T01:20:13.835Z,148429.78
2019-03-12T01:22:44.633Z,148434.83
2019-03-12T01:25:15.368Z,148448.70
2019-03-12T01:27:45.875Z,148453.75
2019-03-12T01:30:17.553Z,148455.03
2019-03-12T01:32:48.308Z,148468.94
2019-03-12T01:35:18.782Z,148455.03
2019-03-12T01:37:49.276Z,148474.00
2019-03-12T01:40:19.735Z,148477.77
2019-03-12T01:42:52.498Z,148490.42
2019-03-12T01:45:22.396Z,148498.02
2019-03-12T01:47:53.154Z,148510.62
2019-03-12T01:50:23.612Z,148516.94
2019-03-12T01:52:54.085Z,148504.34
2019-03-12T01:55:24.563Z,148505.56
2019-03-12T01:57:55.013Z,148492.97
2019-03-12T02:00:26.062Z,148491.69
2019-03-12T02:02:56.606Z,148500.52
2019-03-12T02:05:27.155Z,148495.47
2019-03-12T02:07:57.793Z,148505.56
2019-03-12T02:10:28.263Z,148516.94
2019-03-12T02:12:58.970Z,148484.09
2019-03-12T02:15:29.466Z,148492.97
2019-03-12T02:18:00.482Z,148476.50
2019-03-12T02:20:31.002Z,148496.75
2019-03-12T02:23:01.452Z,148501.80
2019-03-12T02:25:31.952Z,148523.27
2019-03-12T02:28:02.447Z,148524.55
2019-03-12T02:30:33.391Z,148503.06
2019-03-12T02:33:03.877Z,148504.34
2019-03-12T02:35:34.380Z,148500.52
2019-03-12T02:38:04.847Z,148505.56
2019-03-12T02:40:35.356Z,148511.89
2019-03-12T02:43:06.039Z,148504.34
2019-03-12T02:45:36.497Z,148525.81
2019-03-12T02:48:06.998Z,148518.22
2019-03-12T02:50:37.477Z,148523.27
2019-03-12T02:53:08.091Z,148524.55
2019-03-12T02:55:39.007Z,148528.31
2019-03-12T02:58:09.491Z,148513.16
2019-03-12T03:00:40.245Z,148504.34
2019-03-12T03:03:10.713Z,148498.02
2019-03-12T03:06:03.420Z,148499.25
2019-03-12T03:08:34.153Z,148491.69
2019-03-12T03:11:04.659Z,148500.52
2019-03-12T03:13:35.093Z,148490.42
2019-03-12T03:16:06.106Z,148500.52
2019-03-12T03:18:36.563Z,148498.02
2019-03-12T03:21:07.111Z,148474.00
2019-03-12T03:23:37.690Z,148492.97
2019-03-12T03:26:08.169Z,148479.05
2019-03-12T03:28:38.648Z,148492.97
2019-03-12T03:31:09.140Z,148476.50
2019-03-12T03:33:39.539Z,148476.50
2019-03-12T03:36:09.995Z,148472.72
2019-03-12T03:38:40.462Z,148466.39
2019-03-12T03:41:11.215Z,148484.09
2019-03-12T03:43:41.661Z,148466.39
2019-03-12T03:46:12.212Z,148466.39
2019-03-12T03:48:42.687Z,148461.34
2019-03-12T03:51:13.173Z,148456.30
2019-03-12T03:53:43.677Z,148453.75
2019-03-12T03:56:14.228Z,148433.56
2019-03-12T03:58:44.710Z,148447.42
2019-03-12T04:01:15.536Z,148453.75
2019-03-12T04:03:45.970Z,148466.39
2019-03-12T04:06:16.473Z,148447.42
2019-03-12T04:08:47.007Z,148425.95
2019-03-12T04:11:17.711Z,148419.64
2019-03-12T04:13:48.174Z,148418.41
2019-03-12T04:16:18.711Z,148400.72
2019-03-12T04:18:49.342Z,148404.50
2019-03-12T04:21:19.843Z,148400.72
2019-03-12T04:23:50.304Z,148388.08
2019-03-12T04:26:21.054Z,148393.13
2019-03-12T04:28:51.689Z,148398.17
2019-03-12T04:31:22.252Z,148394.39
2019-03-12T04:34:41.288Z,148396.89
2019-03-12T04:37:12.188Z,148403.22
2019-03-12T04:39:42.673Z,148410.81
2019-03-12T04:42:13.422Z,148414.59
2019-03-12T04:44:43.901Z,148408.27
2019-03-12T04:47:14.383Z,148400.72
2019-03-12T04:49:45.112Z,148405.77
2019-03-12T04:52:15.616Z,148422.19
2019-03-12T04:54:46.356Z,148433.56
2019-03-12T04:57:16.811Z,148433.56
2019-03-12T04:59:47.603Z,148428.50
2019-03-12T05:02:18.085Z,148446.20
2019-03-12T05:04:48.541Z,148444.94
2019-03-12T05:07:19.404Z,148443.66
2019-03-12T05:09:49.855Z,148443.66
2019-03-12T05:12:20.326Z,148448.70
2019-03-12T05:14:50.866Z,148462.62
2019-03-12T05:17:27.737Z,148461.34
2019-03-12T05:19:58.229Z,148484.09
2019-03-12T05:22:28.614Z,148487.87
2019-03-12T05:24:59.079Z,148494.19
2019-03-12T05:27:29.940Z,148501.80
2019-03-12T05:30:00.678Z,148510.62
2019-03-12T05:32:31.205Z,148515.72
2019-03-12T05:35:01.732Z,148519.50
2019-03-12T05:37:32.185Z,148542.25
2019-03-12T05:40:02.929Z,148534.64
2019-03-12T05:42:33.418Z,148539.69
2019-03-12T05:45:04.195Z,148547.30
2019-03-12T05:47:34.953Z,148546.02
2019-03-12T05:50:05.598Z,148557.39
2019-03-12T05:52:36.065Z,148565.00
2019-03-12T05:55:07.444Z,148585.20
2019-03-12T05:57:37.925Z,148573.81
2019-03-12T06:00:10.457Z,148596.58
2019-03-12T06:02:40.985Z,148583.97
2019-03-12T06:05:11.739Z,148610.50
2019-03-12T06:07:42.486Z,148626.94
2019-03-12T06:10:13.534Z,148621.88
2019-03-12T06:12:44.067Z,148616.83
2019-03-12T06:15:17.587Z,148631.98
2019-03-12T06:17:48.341Z,148621.88
2019-03-12T06:20:19.368Z,148640.86
2019-03-12T06:22:50.298Z,148654.75
2019-03-12T06:25:20.863Z,148648.42
2019-03-12T06:27:51.446Z,148676.28
2019-03-12T06:30:22.140Z,148667.41
2019-03-12T06:33:00.066Z,148676.28
2019-03-12T06:35:58.789Z,148695.22
2019-03-12T06:38:46.659Z,148719.27
2019-03-12T06:41:40.621Z,148705.33
2019-03-12T06:44:28.478Z,148716.72
2019-03-12T06:47:12.341Z,148739.47
2019-03-12T06:50:02.838Z,148736.97
2019-03-12T06:52:51.110Z,148761.02
2019-03-12T06:55:49.300Z,148782.50
2019-03-12T06:58:37.125Z,148764.80
2019-03-12T07:01:32.126Z,148787.56
2019-03-12T07:04:10.740Z,148774.91
2019-03-12T07:06:54.484Z,148796.45
2019-03-12T07:09:35.369Z,148820.44
2019-03-12T07:12:14.285Z,148844.50
2019-03-12T07:15:02.471Z,148844.50
2019-03-12T07:17:48.958Z,148840.72
2019-03-12T07:20:26.745Z,148860.94
2019-03-12T07:23:16.356Z,148878.66
2019-03-12T07:26:05.658Z,148863.50
2019-03-12T07:28:50.673Z,148878.66
2019-03-12T07:31:45.219Z,148901.44
2019-03-12T07:34:40.313Z,148954.67
2019-03-12T07:37:32.489Z,148978.73
2019-03-12T07:40:22.236Z,148980.00
2019-03-12T07:43:11.029Z,149000.25
2019-03-12T07:46:00.370Z,149025.59
2019-03-12T07:48:48.001Z,149040.77
2019-03-12T07:51:42.159Z,149031.88
2019-03-12T07:54:47.242Z,149064.83
2019-03-12T07:57:33.868Z,149071.17
2019-03-12T08:00:23.577Z,149093.97
2019-03-12T08:03:11.317Z,149062.28
2019-03-12T08:05:59.402Z,149095.19
2019-03-12T08:08:47.196Z,149104.08
2019-03-12T08:11:28.432Z,149124.33
2019-03-12T08:14:32.959Z,149137.00
2019-03-12T08:17:31.197Z,149142.06
2019-03-12T08:20:10.809Z,149153.47
2019-03-12T08:22:46.263Z,149144.62
2019-03-12T08:25:38.704Z,149168.70
2019-03-12T08:28:17.429Z,149162.36
2019-03-12T08:31:16.252Z,149216.81
2019-03-12T08:33:59.139Z,149221.88
2019-03-12T08:36:48.691Z,149271.33
2019-03-12T08:39:36.730Z,149271.33
2019-03-12T08:42:32.046Z,149308.05
2019-03-12T08:45:17.506Z,149287.80
2019-03-12T08:48:05.227Z,149348.61
2019-03-12T08:50:53.108Z,149362.58
2019-03-12T08:53:40.984Z,149351.17
2019-03-12T08:56:33.747Z,149370.20
2019-03-12T08:59:25.907Z,149370.20
2019-03-12T09:02:13.826Z,149427.25
2019-03-12T09:05:02.767Z,149427.25
2019-03-12T09:07:38.709Z,149442.45
2019-03-12T09:10:31.391Z,149481.75
2019-03-12T09:13:20.788Z,149479.25
2019-03-12T09:16:06.180Z,149441.17
2019-03-12T09:18:50.601Z,149486.81
2019-03-12T09:21:42.271Z,149485.55
2019-03-12T09:24:40.193Z,149490.66
2019-03-12T09:27:29.621Z,149503.31
2019-03-12T09:30:30.678Z,149523.63
2019-03-12T09:33:10.567Z,149522.34
2019-03-12T09:36:11.558Z,149507.14
2019-03-12T09:38:53.133Z,149550.28
2019-03-12T09:41:40.011Z,149559.19
2019-03-12T09:44:32.233Z,149542.72
2019-03-12T09:47:22.203Z,149554.13
2019-03-12T09:49:57.264Z,149535.03
2019-03-12T09:52:46.613Z,149556.64
2019-03-12T09:55:38.718Z,149549.02
2019-03-12T09:58:21.387Z,149570.61
2019-03-12T10:00:58.328Z,149547.78
2019-03-12T10:03:43.355Z,149554.13
2019-03-12T10:06:31.432Z,149585.81
2019-03-12T10:09:19.295Z,149608.66
2019-03-12T10:12:00.338Z,149618.80
2019-03-12T10:14:46.210Z,149616.28
2019-03-12T10:17:34.559Z,149683.52
2019-03-12T10:20:27.232Z,149677.17
2019-03-12T10:23:04.116Z,149661.97
2019-03-12T10:25:54.730Z,149698.73
2019-03-12T10:28:46.941Z,149726.70
2019-03-12T10:31:51.587Z,149796.47
2019-03-12T10:34:53.188Z,149852.38
2019-03-12T10:37:30.700Z,149793.97
2019-03-12T10:40:23.733Z,149842.19
2019-03-12T10:43:18.379Z,149909.52
2019-03-12T10:46:08.043Z,149910.80
2019-03-12T10:48:38.506Z,149918.39
2019-03-12T10:51:09.020Z,149938.73
2019-03-12T10:53:39.557Z,149933.66
2019-03-12T10:56:10.042Z,149900.59
2019-03-12T10:58:41.147Z,150008.61
2019-03-12T11:01:11.730Z,149979.39
2019-03-12T11:03:42.226Z,150082.34
2019-03-12T11:06:12.998Z,150073.42
2019-03-12T11:08:43.778Z,150083.63
2019-03-12T11:11:14.388Z,150067.06
2019-03-12T11:13:44.850Z,149978.11
2019-03-12T11:16:15.368Z,149990.81
2019-03-12T11:18:45.826Z,149922.23
2019-03-12T11:21:16.252Z,149909.52
2019-03-12T11:23:47.278Z,149898.09
2019-03-12T11:26:17.654Z,149885.38
2019-03-12T11:28:48.074Z,149913.31
2019-03-12T11:31:18.791Z,149876.52
2019-03-12T11:33:49.534Z,149946.31
2019-03-12T11:36:20.292Z,149950.16
2019-03-12T11:38:50.901Z,150037.84
2019-03-12T11:41:21.588Z,150022.61
2019-03-12T11:43:52.369Z,150023.89
2019-03-12T11:46:23.425Z,150011.17
2019-03-12T11:48:54.181Z,150069.62
2019-03-12T11:51:24.917Z,150082.34
2019-03-12T11:53:55.583Z,150128.09
2019-03-12T11:56:26.685Z,150089.94
2019-03-12T11:58:57.321Z,150116.66
2019-03-12T12:01:28.188Z,150180.22
2019-03-12T12:03:58.959Z,150181.50
2019-03-12T12:06:29.902Z,150138.25
2019-03-12T12:09:00.593Z,150201.81
2019-03-12T12:11:31.153Z,150248.86
2019-03-12T12:14:01.717Z,150185.30
2019-03-12T12:16:32.664Z,150156.05
2019-03-12T12:19:03.277Z,150126.81
2019-03-12T12:21:34.096Z,150103.94
2019-03-12T12:24:04.954Z,150097.58
2019-03-12T12:26:35.562Z,150087.42
2019-03-12T12:29:06.188Z,150112.81
2019-03-12T12:31:36.851Z,150145.89
2019-03-12T12:34:07.736Z,150139.53
2019-03-12T12:36:38.448Z,150129.38
2019-03-12T12:39:09.774Z,150136.97
2019-03-12T12:41:40.362Z,150198.02
2019-03-12T12:44:11.011Z,150227.25
2019-03-12T12:46:41.779Z,150225.97
2019-03-12T12:49:12.309Z,150175.13
2019-03-12T12:51:42.844Z,150227.25
2019-03-12T12:54:13.536Z,150281.91
2019-03-12T12:56:44.150Z,150158.61
2019-03-12T12:59:14.725Z,150274.27
2019-03-12T13:01:45.303Z,150264.09
2019-03-12T13:04:15.878Z,150238.69
2019-03-12T13:06:46.518Z,150205.61
2019-03-12T13:09:17.266Z,150274.27
2019-03-12T13:11:48.057Z,150203.09
2019-03-12T13:14:18.632Z,150220.89
2019-03-12T13:16:49.505Z,150209.45
2019-03-12T13:19:20.091Z,150242.50
2019-03-12T13:21:50.674Z,150232.34
2019-03-12T13:24:21.286Z,150261.58
2019-03-12T13:26:51.886Z,150334.05
2019-03-12T13:29:22.417Z,150401.45
2019-03-12T13:31:53.085Z,150335.33
2019-03-12T13:34:23.868Z,150210.69
2019-03-12T13:36:54.316Z,150211.97
2019-03-12T13:39:24.893Z,150236.13
2019-03-12T13:41:55.409Z,150152.25
2019-03-12T13:44:26.195Z,150213.25
2019-03-12T13:46:56.831Z,150175.13
2019-03-12T13:49:27.330Z,150163.69
2019-03-12T13:51:57.877Z,150196.72
2019-03-12T13:54:28.530Z,150178.94
2019-03-12T13:56:58.987Z,150234.84
2019-03-12T13:59:29.464Z,150238.69
2019-03-12T14:02:00.269Z,150190.38
2019-03-12T14:04:30.788Z,150242.50
2019-03-12T14:07:01.556Z,150213.25
2019-03-12T14:09:32.065Z,150205.61
2019-03-12T14:12:02.946Z,150189.09
2019-03-12T14:14:33.406Z,150184.00
2019-03-12T14:17:04.189Z,150186.58
2019-03-12T14:19:34.652Z,150205.61
2019-03-12T14:22:08.957Z,150219.61
2019-03-12T14:24:39.663Z,150167.48
2019-03-12T14:27:10.128Z,150168.77
2019-03-12T14:29:40.614Z,150153.48
2019-03-12T14:32:12.243Z,150177.64
2019-03-12T14:34:42.727Z,150178.94
2019-03-12T14:37:13.242Z,150184.00
2019-03-12T14:39:43.771Z,150175.13
2019-03-12T14:42:14.494Z,150172.56
2019-03-12T14:44:45.563Z,150152.25
2019-03-12T14:47:16.030Z,150166.20
2019-03-12T14:49:46.813Z,150170.06
2019-03-12T14:52:34.818Z,150199.25
2019-03-12T14:55:06.150Z,150200.53
2019-03-12T14:57:36.609Z,150167.48
2019-03-12T15:00:19.434Z,150157.33
2019-03-12T15:02:50.315Z,150167.48
2019-03-12T15:05:20.901Z,150153.48
2019-03-12T15:07:51.416Z,150152.25
2019-03-12T15:10:21.875Z,150164.92
2019-03-12T15:12:52.336Z,150133.17
2019-03-12T15:15:22.840Z,150150.97
2019-03-12T15:17:53.567Z,150147.12
2019-03-12T15:20:24.142Z,150161.12
2019-03-12T15:22:54.985Z,150153.48
2019-03-12T15:25:26.010Z,150149.69
2019-03-12T15:27:56.498Z,150164.92
2019-03-12T15:30:27.458Z,150133.17
2019-03-12T15:32:58.206Z,150153.48
2019-03-12T15:35:29.459Z,150154.77
2019-03-12T15:38:00.379Z,150152.25
2019-03-12T15:40:30.885Z,150154.77
2019-03-12T15:43:01.587Z,150159.84
2019-03-12T15:45:32.082Z,150142.05
2019-03-12T15:48:02.777Z,150133.17
2019-03-12T15:50:34.685Z,150130.61
2019-03-12T15:53:05.634Z,150166.20
2019-03-12T15:55:36.100Z,150149.69
2019-03-12T15:58:06.556Z,150158.61
2019-03-12T16:00:37.180Z,150156.05
2019-03-12T16:03:07.703Z,150162.41
2019-03-12T16:05:38.437Z,150157.33
2019-03-12T16:08:09.046Z,150171.28
2019-03-12T16:10:39.788Z,150176.36
2019-03-12T16:13:10.577Z,150162.41
2019-03-12T16:15:41.148Z,150170.06
2019-03-12T16:18:14.459Z,150172.56
2019-03-12T16:20:44.250Z,150173.84
2019-03-12T16:23:15.356Z,150156.05
2019-03-12T16:25:46.185Z,150152.25
2019-03-12T16:28:16.647Z,150152.25
2019-03-12T16:30:47.156Z,150147.12
2019-03-12T16:33:18.657Z,150154.77
2019-03-12T16:35:49.264Z,150140.81
2019-03-12T16:38:20.087Z,150153.48
2019-03-12T16:40:50.615Z,150153.48
2019-03-12T16:43:22.277Z,150150.97
2019-03-12T16:45:53.025Z,150156.05
2019-03-12T16:48:23.512Z,150147.12
2019-03-12T16:50:54.098Z,150149.69
2019-03-12T16:53:24.725Z,150134.45
2019-03-12T16:55:55.718Z,150145.89
2019-03-12T16:58:26.279Z,150139.53
2019-03-12T17:00:56.741Z,150149.69
2019-03-12T17:03:27.316Z,150145.89
2019-03-12T17:05:57.812Z,150130.61
2019-03-12T17:08:28.551Z,150133.17
2019-03-12T17:11:02.769Z,150129.38
2019-03-12T17:13:32.100Z,150139.53
2019-03-12T17:16:03.023Z,150143.33
2019-03-12T17:18:34.171Z,150157.33
2019-03-12T17:21:04.733Z,150135.69
2019-03-12T17:23:35.677Z,150134.45
2019-03-12T17:26:06.186Z,150116.66
2019-03-12T17:28:37.186Z,150130.61
2019-03-12T17:31:07.714Z,150105.22
2019-03-12T17:33:38.337Z,150121.73
2019-03-12T17:36:09.228Z,150124.25
2019-03-12T17:38:46.740Z,150114.09
2019-03-12T17:41:12.071Z,150110.30
2019-03-12T17:43:42.958Z,150116.66
2019-03-12T17:46:13.804Z,150106.50
2019-03-12T17:48:44.354Z,150103.94
2019-03-12T17:51:14.928Z,150117.94
2019-03-12T17:53:45.486Z,150103.94
2019-03-12T17:56:15.948Z,150093.78
2019-03-12T17:58:46.555Z,150111.58
2019-03-12T18:01:17.027Z,150103.94
2019-03-12T18:03:47.499Z,150097.58
2019-03-12T18:06:18.043Z,150095.06
2019-03-12T18:08:48.614Z,150102.66
2019-03-12T18:11:19.205Z,150105.22
2019-03-12T18:13:49.840Z,150097.58
2019-03-12T18:16:20.393Z,150128.09
2019-03-12T18:18:50.868Z,150101.37
2019-03-12T18:21:21.690Z,150109.02
2019-03-12T18:23:52.259Z,150106.50
2019-03-12T18:26:22.741Z,150109.02
2019-03-12T18:28:53.630Z,150115.37
2019-03-12T18:31:24.039Z,150117.94
2019-03-12T18:33:54.635Z,150116.66
2019-03-12T18:36:25.523Z,150115.37
2019-03-12T18:38:56.082Z,150128.09
2019-03-12T18:41:26.538Z,150134.45
2019-03-12T18:43:57.296Z,150143.33
2019-03-12T18:46:27.817Z,150135.69
2019-03-12T18:48:58.350Z,150123.02
2019-03-12T18:51:28.895Z,150131.89
2019-03-12T18:53:59.431Z,150128.09
2019-03-12T18:56:30.056Z,150133.17
2019-03-12T18:59:00.866Z,150126.81
2019-03-12T19:01:31.341Z,150131.89
2019-03-12T19:04:02.057Z,150124.25
2019-03-12T19:06:33.448Z,150135.69
2019-03-12T19:09:05.583Z,150139.53
2019-03-12T19:11:37.555Z,150129.38
2019-03-12T19:14:08.351Z,150140.81
2019-03-12T19:16:38.946Z,150142.05
2019-03-12T19:19:09.536Z,150101.37
2019-03-12T19:21:40.027Z,150070.91
2019-03-12T19:24:10.747Z,150039.12
2019-03-12T19:26:41.343Z,150017.53
2019-03-12T19:29:12.123Z,150009.89
2019-03-12T19:32:01.281Z,149976.83
2019-03-12T19:34:33.786Z,149962.83
2019-03-12T19:37:04.769Z,149946.31
2019-03-12T19:39:35.996Z,149937.45
2019-03-12T19:42:06.483Z,149924.75
2019-03-12T19:44:37.157Z,149931.09
2019-03-12T19:47:07.965Z,149898.09
2019-03-12T19:49:38.468Z,149887.94
2019-03-12T19:52:08.992Z,149886.66
2019-03-12T19:54:39.827Z,149868.88
2019-03-12T19:57:11.589Z,149856.17
2019-03-12T19:59:42.576Z,149886.66
2019-03-12T20:02:16.430Z,149875.23
2019-03-12T20:04:47.668Z,149856.17
2019-03-12T20:07:18.585Z,149862.53
2019-03-12T20:10:50.182Z,149832.03
2019-03-12T20:14:34.452Z,149839.67
2019-03-12T20:18:08.253Z,149799.03
2019-03-12T20:21:28.385Z,149814.25
2019-03-12T20:25:18.893Z,149852.38
2019-03-12T20:28:57.350Z,149865.03
2019-03-12T20:32:11.031Z,149915.88
2019-03-12T20:36:07.390Z,149922.23
2019-03-12T20:40:08.337Z,149939.97
2019-03-12T20:43:32.165Z,149952.67
2019-03-12T20:47:14.051Z,149969.19
2019-03-12T20:50:37.900Z,149988.25
2019-03-12T20:54:13.323Z,150009.89
2019-03-12T20:57:32.354Z,150023.89
2019-03-12T21:01:28.040Z,150012.45
2019-03-12T21:05:01.925Z,149992.05
2019-03-12T21:08:37.642Z,149956.52
2019-03-12T21:12:19.166Z,149885.38
2019-03-12T21:15:52.599Z,149584.53
2019-03-12T21:19:41.673Z,149398.09
2019-03-12T21:23:23.832Z,149245.97
2019-03-12T21:26:34.048Z,149182.61
2019-03-12T21:29:48.322Z,149129.39
2019-03-12T21:32:20.265Z,149087.63
2019-03-12T21:34:51.305Z,149063.56
2019-03-12T21:37:22.694Z,149025.59
2019-03-12T21:39:56.188Z,149000.25
2019-03-12T21:42:25.928Z,148974.91
2019-03-12T21:44:56.676Z,148964.78
2019-03-12T21:47:29.578Z,148964.78
2019-03-12T21:50:00.549Z,148952.11
2019-03-12T21:52:31.844Z,148947.06
2019-03-12T21:55:02.615Z,148950.89
2019-03-12T21:57:33.434Z,148939.50
2019-03-12T22:00:04.161Z,148935.66
2019-03-12T22:02:34.593Z,148924.22
2019-03-12T22:05:05.224Z,148936.94
2019-03-12T22:07:36.025Z,148930.56
2019-03-12T22:10:07.723Z,148931.84
2019-03-12T22:12:38.266Z,148933.11
2019-03-12T22:15:09.695Z,148926.78
2019-03-12T22:17:40.499Z,148934.39
2019-03-12T22:20:11.675Z,148930.56
2019-03-12T22:22:46.722Z,148944.56
2019-03-12T22:25:17.481Z,148947.06
2019-03-12T22:27:47.988Z,148948.34
2019-03-12T22:30:21.218Z,148942.00
2019-03-12T22:32:51.815Z,148930.56
2019-03-12T22:35:22.335Z,148929.28
2019-03-12T22:37:53.181Z,148934.39
2019-03-12T22:40:24.026Z,148922.95
2019-03-12T22:42:54.945Z,148934.39
2019-03-12T22:45:28.723Z,148939.50
2019-03-12T22:47:59.933Z,148958.45
2019-03-12T22:50:30.694Z,148957.22
2019-03-12T22:53:01.829Z,148955.94
2019-03-12T22:55:32.700Z,148962.28
2019-03-12T22:58:04.576Z,148969.84
2019-03-12T23:00:40.299Z,148973.67
2019-03-12T23:03:11.325Z,148982.52
2019-03-12T23:05:42.108Z,148978.73
2019-03-12T23:08:13.089Z,148990.13
2019-03-12T23:10:43.754Z,148992.63
2019-03-12T23:13:14.265Z,148995.19
2019-03-12T23:15:44.914Z,148990.13
2019-03-12T23:18:15.567Z,148997.69
2019-03-12T23:20:46.188Z,149002.80
2019-03-12T23:23:16.840Z,148992.63
2019-03-12T23:25:48.430Z,148990.13
2019-03-12T23:28:19.027Z,148995.19
2019-03-12T23:30:49.819Z,148996.47
2019-03-12T23:33:20.706Z,148986.30
2019-03-12T23:35:51.424Z,148998.97
2019-03-12T23:38:25.037Z,149000.25
2019-03-12T23:40:55.946Z,149005.30
2019-03-12T23:43:26.444Z,148997.69
2019-03-12T23:45:57.063Z,148982.52
2019-03-12T23:48:27.540Z,148988.84
2019-03-12T23:50:58.015Z,148977.45
2019-03-12T23:53:28.538Z,148980.00
2019-03-12T23:55:59.075Z,148983.80
2019-03-12T23:58:34.859Z,148990.13
